sensor_id;sensor_type;location;lat;lon;timestamp;P1;durP1;ratioP1;P2;durP2;ratioP2
60718;SDS011;46567;51.660;5.824;2023-06-14T00:02:19;8.5;;;5.2;;
60718;SDS011;46567;51.660;5.824;2023-06-14T00:07:20;8.4;;;4.9;;
60718;SDS011;46567;51.660;5.824;2023-06-14T00:12:19;8.1;;;5.2;;
60718;SDS011;46567;51.660;5.824;2023-06-14T00:18:34;5.2;;;4.5;;
60718;SDS011;46567;51.660;5.824;2023-06-14T00:22:19;5.3;;;4.4;;
60718;SDS011;46567;51.660;5.824;2023-06-14T00:27:19;6.9;;;4.7;;
60718;SDS011;46567;51.660;5.824;2023-06-14T00:32:19;5.2;;;4.2;;
60718;SDS011;46567;51.660;5.824;2023-06-14T00:37:19;5.8;;;4.3;;
60718;SDS011;46567;51.660;5.824;2023-06-14T00:42:23;12.6;;;4.3;;
60718;SDS011;46567;51.660;5.824;2023-06-14T00:47:19;5.7;;;4.3;;
60718;SDS011;46567;51.660;5.824;2023-06-14T00:52:19;5.7;;;4.2;;
60718;SDS011;46567;51.660;5.824;2023-06-14T00:57:19;5.0;;;3.8;;
60718;SDS011;46567;51.660;5.824;2023-06-14T01:02:19;6.4;;;3.9;;
60718;SDS011;46567;51.660;5.824;2023-06-14T01:07:33;6.3;;;4.2;;
60718;SDS011;46567;51.660;5.824;2023-06-14T01:12:29;7.0;;;4.0;;
60718;SDS011;46567;51.660;5.824;2023-06-14T01:17:19;9.9;;;3.8;;
60718;SDS011;46567;51.660;5.824;2023-06-14T01:22:19;8.1;;;3.5;;
60718;SDS011;46567;51.660;5.824;2023-06-14T01:27:19;6.3;;;3.9;;
60718;SDS011;46567;51.660;5.824;2023-06-14T01:32:19;6.1;;;3.4;;
60718;SDS011;46567;51.660;5.824;2023-06-14T01:37:21;7.7;;;3.4;;
60718;SDS011;46567;51.660;5.824;2023-06-14T01:42:19;6.5;;;3.9;;
60718;SDS011;46567;51.660;5.824;2023-06-14T01:47:19;5.3;;;3.9;;
60718;SDS011;46567;51.660;5.824;2023-06-14T01:52:19;5.0;;;3.4;;
60718;SDS011;46567;51.660;5.824;2023-06-14T01:57:19;5.5;;;3.7;;
60718;SDS011;46567;51.660;5.824;2023-06-14T02:02:19;6.2;;;4.0;;
60718;SDS011;46567;51.660;5.824;2023-06-14T02:07:19;8.1;;;4.3;;
60718;SDS011;46567;51.660;5.824;2023-06-14T02:12:19;8.0;;;4.1;;
60718;SDS011;46567;51.660;5.824;2023-06-14T02:17:19;7.5;;;4.1;;
60718;SDS011;46567;51.660;5.824;2023-06-14T02:22:19;7.9;;;4.3;;
60718;SDS011;46567;51.660;5.824;2023-06-14T02:27:19;6.7;;;3.9;;
60718;SDS011;46567;51.660;5.824;2023-06-14T02:32:19;8.7;;;3.9;;
60718;SDS011;46567;51.660;5.824;2023-06-14T02:37:20;7.5;;;3.3;;
60718;SDS011;46567;51.660;5.824;2023-06-14T02:42:19;5.3;;;3.8;;
60718;SDS011;46567;51.660;5.824;2023-06-14T02:47:19;7.8;;;4.0;;
60718;SDS011;46567;51.660;5.824;2023-06-14T02:52:19;6.8;;;3.5;;
60718;SDS011;46567;51.660;5.824;2023-06-14T02:57:19;5.8;;;3.9;;
60718;SDS011;46567;51.660;5.824;2023-06-14T03:02:19;6.4;;;4.0;;
60718;SDS011;46567;51.660;5.824;2023-06-14T03:07:19;9.3;;;4.1;;
60718;SDS011;46567;51.660;5.824;2023-06-14T03:12:19;5.5;;;3.5;;
60718;SDS011;46567;51.660;5.824;2023-06-14T03:17:19;5.4;;;3.5;;
60718;SDS011;46567;51.660;5.824;2023-06-14T03:22:19;8.0;;;3.7;;
60718;SDS011;46567;51.660;5.824;2023-06-14T03:27:20;8.9;;;3.9;;
60718;SDS011;46567;51.660;5.824;2023-06-14T03:32:19;6.9;;;3.7;;
60718;SDS011;46567;51.660;5.824;2023-06-14T03:37:19;7.8;;;3.4;;
60718;SDS011;46567;51.660;5.824;2023-06-14T03:42:19;7.2;;;3.6;;
60718;SDS011;46567;51.660;5.824;2023-06-14T03:47:19;7.4;;;3.5;;
60718;SDS011;46567;51.660;5.824;2023-06-14T03:52:19;6.6;;;3.9;;
60718;SDS011;46567;51.660;5.824;2023-06-14T03:57:19;8.4;;;3.8;;
60718;SDS011;46567;51.660;5.824;2023-06-14T04:02:19;8.7;;;3.9;;
60718;SDS011;46567;51.660;5.824;2023-06-14T04:07:19;5.1;;;3.6;;
60718;SDS011;46567;51.660;5.824;2023-06-14T04:12:19;4.6;;;3.2;;
60718;SDS011;46567;51.660;5.824;2023-06-14T04:17:19;6.2;;;3.7;;
60718;SDS011;46567;51.660;5.824;2023-06-14T04:22:19;5.4;;;3.6;;
60718;SDS011;46567;51.660;5.824;2023-06-14T04:27:19;7.6;;;4.0;;
60718;SDS011;46567;51.660;5.824;2023-06-14T04:32:19;6.5;;;3.6;;
60718;SDS011;46567;51.660;5.824;2023-06-14T04:37:20;5.1;;;3.3;;
60718;SDS011;46567;51.660;5.824;2023-06-14T04:42:19;5.8;;;3.5;;
60718;SDS011;46567;51.660;5.824;2023-06-14T04:47:20;5.5;;;3.5;;
60718;SDS011;46567;51.660;5.824;2023-06-14T04:52:19;4.6;;;3.4;;
60718;SDS011;46567;51.660;5.824;2023-06-14T04:57:19;8.0;;;3.4;;
60718;SDS011;46567;51.660;5.824;2023-06-14T05:02:20;6.8;;;3.4;;
60718;SDS011;46567;51.660;5.824;2023-06-14T05:07:19;4.5;;;3.4;;
60718;SDS011;46567;51.660;5.824;2023-06-14T05:12:19;6.2;;;3.5;;
60718;SDS011;46567;51.660;5.824;2023-06-14T05:17:20;5.3;;;3.0;;
60718;SDS011;46567;51.660;5.824;2023-06-14T05:22:19;7.9;;;3.3;;
60718;SDS011;46567;51.660;5.824;2023-06-14T05:27:20;5.9;;;3.3;;
60718;SDS011;46567;51.660;5.824;2023-06-14T05:32:19;4.4;;;3.0;;
60718;SDS011;46567;51.660;5.824;2023-06-14T05:37:20;11.5;;;3.3;;
60718;SDS011;46567;51.660;5.824;2023-06-14T05:42:20;7.4;;;3.3;;
60718;SDS011;46567;51.660;5.824;2023-06-14T05:47:20;6.8;;;3.3;;
60718;SDS011;46567;51.660;5.824;2023-06-14T05:52:20;4.0;;;3.1;;
60718;SDS011;46567;51.660;5.824;2023-06-14T05:57:19;6.1;;;3.2;;
60718;SDS011;46567;51.660;5.824;2023-06-14T06:02:19;6.5;;;3.1;;
60718;SDS011;46567;51.660;5.824;2023-06-14T06:07:19;3.8;;;3.1;;
60718;SDS011;46567;51.660;5.824;2023-06-14T06:12:19;5.6;;;3.2;;
60718;SDS011;46567;51.660;5.824;2023-06-14T06:17:20;4.7;;;3.0;;
60718;SDS011;46567;51.660;5.824;2023-06-14T06:22:20;5.4;;;3.2;;
60718;SDS011;46567;51.660;5.824;2023-06-14T06:27:19;4.7;;;3.2;;
60718;SDS011;46567;51.660;5.824;2023-06-14T06:32:20;8.8;;;3.0;;
60718;SDS011;46567;51.660;5.824;2023-06-14T06:37:19;7.1;;;3.2;;
60718;SDS011;46567;51.660;5.824;2023-06-14T06:42:20;4.6;;;2.7;;
60718;SDS011;46567;51.660;5.824;2023-06-14T06:47:20;5.9;;;3.0;;
60718;SDS011;46567;51.660;5.824;2023-06-14T06:52:19;4.5;;;3.2;;
60718;SDS011;46567;51.660;5.824;2023-06-14T06:57:20;5.5;;;2.6;;
60718;SDS011;46567;51.660;5.824;2023-06-14T07:02:19;8.8;;;2.8;;
60718;SDS011;46567;51.660;5.824;2023-06-14T07:07:20;3.8;;;2.3;;
60718;SDS011;46567;51.660;5.824;2023-06-14T07:12:20;3.6;;;2.6;;
60718;SDS011;46567;51.660;5.824;2023-06-14T07:17:19;6.8;;;2.8;;
60718;SDS011;46567;51.660;5.824;2023-06-14T07:22:20;3.7;;;2.5;;
60718;SDS011;46567;51.660;5.824;2023-06-14T07:27:20;7.3;;;3.0;;
60718;SDS011;46567;51.660;5.824;2023-06-14T07:32:19;5.4;;;2.8;;
60718;SDS011;46567;51.660;5.824;2023-06-14T07:37:19;4.9;;;2.1;;
60718;SDS011;46567;51.660;5.824;2023-06-14T07:42:20;4.4;;;2.2;;
60718;SDS011;46567;51.660;5.824;2023-06-14T07:47:19;4.1;;;1.9;;
60718;SDS011;46567;51.660;5.824;2023-06-14T07:52:20;2.9;;;2.2;;
60718;SDS011;46567;51.660;5.824;2023-06-14T07:57:20;6.2;;;2.0;;
60718;SDS011;46567;51.660;5.824;2023-06-14T08:02:20;4.2;;;2.7;;
60718;SDS011;46567;51.660;5.824;2023-06-14T08:07:20;2.8;;;1.9;;
60718;SDS011;46567;51.660;5.824;2023-06-14T08:12:20;4.1;;;1.6;;
60718;SDS011;46567;51.660;5.824;2023-06-14T08:17:20;2.3;;;1.3;;
60718;SDS011;46567;51.660;5.824;2023-06-14T08:22:20;1.4;;;1.3;;
60718;SDS011;46567;51.660;5.824;2023-06-14T08:27:20;2.3;;;1.2;;
60718;SDS011;46567;51.660;5.824;2023-06-14T08:32:20;2.7;;;1.3;;
60718;SDS011;46567;51.660;5.824;2023-06-14T08:37:20;1.7;;;1.2;;
60718;SDS011;46567;51.660;5.824;2023-06-14T08:42:20;4.4;;;1.2;;
60718;SDS011;46567;51.660;5.824;2023-06-14T08:47:20;1.6;;;0.9;;
60718;SDS011;46567;51.660;5.824;2023-06-14T08:52:20;2.7;;;1.3;;
60718;SDS011;46567;51.660;5.824;2023-06-14T08:57:20;17.5;;;3.0;;
60718;SDS011;46567;51.660;5.824;2023-06-14T09:02:20;4.1;;;1.2;;
60718;SDS011;46567;51.660;5.824;2023-06-14T09:07:20;2.6;;;1.4;;
60718;SDS011;46567;51.660;5.824;2023-06-14T09:12:20;2.5;;;1.3;;
60718;SDS011;46567;51.660;5.824;2023-06-14T09:17:20;1.3;;;1.2;;
60718;SDS011;46567;51.660;5.824;2023-06-14T09:22:20;4.5;;;1.3;;
60718;SDS011;46567;51.660;5.824;2023-06-14T09:27:20;1.5;;;1.3;;
60718;SDS011;46567;51.660;5.824;2023-06-14T09:32:20;1.7;;;1.5;;
60718;SDS011;46567;51.660;5.824;2023-06-14T09:37:27;3.3;;;1.6;;
60718;SDS011;46567;51.660;5.824;2023-06-14T09:42:20;4.1;;;1.5;;
60718;SDS011;46567;51.660;5.824;2023-06-14T09:47:20;2.8;;;1.4;;
60718;SDS011;46567;51.660;5.824;2023-06-14T09:52:21;3.5;;;1.5;;
60718;SDS011;46567;51.660;5.824;2023-06-14T09:57:20;11.5;;;1.4;;
60718;SDS011;46567;51.660;5.824;2023-06-14T10:02:28;1.7;;;1.4;;
60718;SDS011;46567;51.660;5.824;2023-06-14T10:07:20;2.1;;;1.4;;
60718;SDS011;46567;51.660;5.824;2023-06-14T10:12:20;1.9;;;1.5;;
60718;SDS011;46567;51.660;5.824;2023-06-14T10:17:26;2.7;;;1.3;;
60718;SDS011;46567;51.660;5.824;2023-06-14T10:22:35;1.9;;;1.3;;
60718;SDS011;46567;51.660;5.824;2023-06-14T10:27:20;2.2;;;1.5;;
60718;SDS011;46567;51.660;5.824;2023-06-14T10:32:20;2.5;;;1.3;;
60718;SDS011;46567;51.660;5.824;2023-06-14T10:37:20;2.0;;;1.3;;
60718;SDS011;46567;51.660;5.824;2023-06-14T10:42:20;2.6;;;1.2;;
60718;SDS011;46567;51.660;5.824;2023-06-14T10:47:23;2.8;;;1.2;;
60718;SDS011;46567;51.660;5.824;2023-06-14T10:52:22;3.3;;;1.5;;
60718;SDS011;46567;51.660;5.824;2023-06-14T10:57:20;4.7;;;1.4;;
60718;SDS011;46567;51.660;5.824;2023-06-14T11:02:52;1.4;;;1.1;;
60718;SDS011;46567;51.660;5.824;2023-06-14T11:07:52;1.7;;;1.3;;
60718;SDS011;46567;51.660;5.824;2023-06-14T11:12:20;1.5;;;1.1;;
60718;SDS011;46567;51.660;5.824;2023-06-14T11:17:20;2.9;;;1.2;;
60718;SDS011;46567;51.660;5.824;2023-06-14T11:22:20;2.7;;;1.8;;
60718;SDS011;46567;51.660;5.824;2023-06-14T11:27:20;2.6;;;1.2;;
60718;SDS011;46567;51.660;5.824;2023-06-14T11:32:20;1.8;;;1.2;;
60718;SDS011;46567;51.660;5.824;2023-06-14T11:37:20;1.2;;;1.1;;
60718;SDS011;46567;51.660;5.824;2023-06-14T11:42:20;5.2;;;1.4;;
60718;SDS011;46567;51.660;5.824;2023-06-14T11:47:20;1.9;;;1.2;;
60718;SDS011;46567;51.660;5.824;2023-06-14T11:52:20;4.7;;;1.3;;
60718;SDS011;46567;51.660;5.824;2023-06-14T11:57:20;1.9;;;1.3;;
60718;SDS011;46567;51.660;5.824;2023-06-14T12:02:21;3.7;;;1.4;;
60718;SDS011;46567;51.660;5.824;2023-06-14T12:07:21;2.3;;;1.3;;
60718;SDS011;46567;51.660;5.824;2023-06-14T12:12:20;3.0;;;1.3;;
60718;SDS011;46567;51.660;5.824;2023-06-14T12:17:20;2.2;;;1.3;;
60718;SDS011;46567;51.660;5.824;2023-06-14T12:22:20;2.0;;;1.3;;
60718;SDS011;46567;51.660;5.824;2023-06-14T12:27:21;2.7;;;1.3;;
60718;SDS011;46567;51.660;5.824;2023-06-14T12:32:20;3.5;;;1.2;;
60718;SDS011;46567;51.660;5.824;2023-06-14T12:37:20;2.0;;;1.2;;
60718;SDS011;46567;51.660;5.824;2023-06-14T12:42:20;2.1;;;1.1;;
60718;SDS011;46567;51.660;5.824;2023-06-14T12:47:20;3.1;;;1.1;;
60718;SDS011;46567;51.660;5.824;2023-06-14T12:52:20;1.8;;;1.2;;
60718;SDS011;46567;51.660;5.824;2023-06-14T12:57:20;3.3;;;1.1;;
60718;SDS011;46567;51.660;5.824;2023-06-14T13:02:20;2.3;;;1.2;;
60718;SDS011;46567;51.660;5.824;2023-06-14T13:07:20;1.9;;;1.0;;
60718;SDS011;46567;51.660;5.824;2023-06-14T13:12:20;1.6;;;1.1;;
60718;SDS011;46567;51.660;5.824;2023-06-14T13:17:20;2.9;;;1.0;;
60718;SDS011;46567;51.660;5.824;2023-06-14T13:22:20;2.6;;;1.0;;
60718;SDS011;46567;51.660;5.824;2023-06-14T13:27:20;2.1;;;1.0;;
60718;SDS011;46567;51.660;5.824;2023-06-14T13:32:20;3.1;;;0.9;;
60718;SDS011;46567;51.660;5.824;2023-06-14T13:37:20;1.6;;;0.9;;
60718;SDS011;46567;51.660;5.824;2023-06-14T13:42:20;6.0;;;1.2;;
60718;SDS011;46567;51.660;5.824;2023-06-14T13:47:20;1.3;;;0.8;;
60718;SDS011;46567;51.660;5.824;2023-06-14T13:52:20;2.6;;;0.9;;
60718;SDS011;46567;51.660;5.824;2023-06-14T13:57:20;2.9;;;1.0;;
60718;SDS011;46567;51.660;5.824;2023-06-14T14:02:20;2.9;;;0.9;;
60718;SDS011;46567;51.660;5.824;2023-06-14T14:07:20;4.0;;;0.8;;
60718;SDS011;46567;51.660;5.824;2023-06-14T14:12:20;7.1;;;1.2;;
60718;SDS011;46567;51.660;5.824;2023-06-14T14:17:20;1.5;;;0.8;;
60718;SDS011;46567;51.660;5.824;2023-06-14T14:22:20;1.1;;;0.9;;
60718;SDS011;46567;51.660;5.824;2023-06-14T14:27:20;2.0;;;1.0;;
60718;SDS011;46567;51.660;5.824;2023-06-14T14:32:20;2.4;;;1.0;;
60718;SDS011;46567;51.660;5.824;2023-06-14T14:37:20;2.6;;;1.1;;
60718;SDS011;46567;51.660;5.824;2023-06-14T14:42:20;1.4;;;1.1;;
60718;SDS011;46567;51.660;5.824;2023-06-14T14:47:20;1.3;;;1.0;;
60718;SDS011;46567;51.660;5.824;2023-06-14T14:52:20;1.9;;;0.8;;
60718;SDS011;46567;51.660;5.824;2023-06-14T14:57:20;2.5;;;1.0;;
60718;SDS011;46567;51.660;5.824;2023-06-14T15:02:20;1.7;;;0.9;;
60718;SDS011;46567;51.660;5.824;2023-06-14T15:07:20;1.6;;;1.0;;
60718;SDS011;46567;51.660;5.824;2023-06-14T15:12:20;2.7;;;0.8;;
60718;SDS011;46567;51.660;5.824;2023-06-14T15:17:21;1.2;;;0.9;;
60718;SDS011;46567;51.660;5.824;2023-06-14T15:22:20;1.1;;;0.8;;
60718;SDS011;46567;51.660;5.824;2023-06-14T15:27:20;1.9;;;0.8;;
60718;SDS011;46567;51.660;5.824;2023-06-14T15:32:20;1.2;;;0.9;;
60718;SDS011;46567;51.660;5.824;2023-06-14T15:37:20;2.4;;;1.1;;
60718;SDS011;46567;51.660;5.824;2023-06-14T15:42:20;1.5;;;1.0;;
60718;SDS011;46567;51.660;5.824;2023-06-14T15:47:20;1.6;;;0.9;;
60718;SDS011;46567;51.660;5.824;2023-06-14T15:52:20;5.1;;;1.1;;
60718;SDS011;46567;51.660;5.824;2023-06-14T15:57:20;1.5;;;1.1;;
60718;SDS011;46567;51.660;5.824;2023-06-14T16:02:20;1.7;;;1.1;;
60718;SDS011;46567;51.660;5.824;2023-06-14T16:07:20;2.4;;;1.0;;
60718;SDS011;46567;51.660;5.824;2023-06-14T16:12:20;1.9;;;1.1;;
60718;SDS011;46567;51.660;5.824;2023-06-14T16:17:20;2.3;;;1.1;;
60718;SDS011;46567;51.660;5.824;2023-06-14T16:22:20;1.9;;;1.2;;
60718;SDS011;46567;51.660;5.824;2023-06-14T16:27:20;3.9;;;1.5;;
60718;SDS011;46567;51.660;5.824;2023-06-14T16:32:20;5.8;;;1.4;;
60718;SDS011;46567;51.660;5.824;2023-06-14T16:37:20;3.6;;;1.3;;
60718;SDS011;46567;51.660;5.824;2023-06-14T16:42:20;1.4;;;1.3;;
60718;SDS011;46567;51.660;5.824;2023-06-14T16:47:20;4.2;;;1.6;;
60718;SDS011;46567;51.660;5.824;2023-06-14T16:52:20;1.8;;;1.5;;
60718;SDS011;46567;51.660;5.824;2023-06-14T16:57:20;3.0;;;1.3;;
60718;SDS011;46567;51.660;5.824;2023-06-14T17:02:20;2.3;;;1.6;;
60718;SDS011;46567;51.660;5.824;2023-06-14T17:07:20;4.7;;;1.7;;
60718;SDS011;46567;51.660;5.824;2023-06-14T17:12:20;2.8;;;1.9;;
60718;SDS011;46567;51.660;5.824;2023-06-14T17:17:20;1.9;;;1.7;;
60718;SDS011;46567;51.660;5.824;2023-06-14T17:22:20;3.4;;;1.9;;
60718;SDS011;46567;51.660;5.824;2023-06-14T17:27:20;1.7;;;1.5;;
60718;SDS011;46567;51.660;5.824;2023-06-14T17:32:20;2.9;;;1.7;;
60718;SDS011;46567;51.660;5.824;2023-06-14T17:37:20;2.8;;;1.7;;
60718;SDS011;46567;51.660;5.824;2023-06-14T17:42:20;2.0;;;1.5;;
60718;SDS011;46567;51.660;5.824;2023-06-14T17:47:20;4.0;;;1.8;;
60718;SDS011;46567;51.660;5.824;2023-06-14T17:52:20;3.0;;;1.7;;
60718;SDS011;46567;51.660;5.824;2023-06-14T17:57:20;4.1;;;2.2;;
60718;SDS011;46567;51.660;5.824;2023-06-14T18:02:20;3.1;;;1.7;;
60718;SDS011;46567;51.660;5.824;2023-06-14T18:07:20;2.9;;;1.8;;
60718;SDS011;46567;51.660;5.824;2023-06-14T18:12:20;2.3;;;1.7;;
60718;SDS011;46567;51.660;5.824;2023-06-14T18:17:20;2.7;;;1.8;;
60718;SDS011;46567;51.660;5.824;2023-06-14T18:22:20;1.9;;;1.7;;
60718;SDS011;46567;51.660;5.824;2023-06-14T18:27:20;2.5;;;1.8;;
60718;SDS011;46567;51.660;5.824;2023-06-14T18:32:20;3.1;;;1.7;;
60718;SDS011;46567;51.660;5.824;2023-06-14T18:37:20;2.0;;;1.6;;
60718;SDS011;46567;51.660;5.824;2023-06-14T18:42:20;2.2;;;1.7;;
60718;SDS011;46567;51.660;5.824;2023-06-14T18:47:20;3.3;;;1.8;;
60718;SDS011;46567;51.660;5.824;2023-06-14T18:52:20;3.2;;;1.9;;
60718;SDS011;46567;51.660;5.824;2023-06-14T18:57:20;3.1;;;2.0;;
60718;SDS011;46567;51.660;5.824;2023-06-14T19:02:20;2.9;;;2.2;;
60718;SDS011;46567;51.660;5.824;2023-06-14T19:07:20;3.4;;;2.0;;
60718;SDS011;46567;51.660;5.824;2023-06-14T19:12:20;2.7;;;1.9;;
60718;SDS011;46567;51.660;5.824;2023-06-14T19:17:20;4.6;;;2.3;;
60718;SDS011;46567;51.660;5.824;2023-06-14T19:22:20;3.0;;;2.1;;
60718;SDS011;46567;51.660;5.824;2023-06-14T19:27:20;3.4;;;2.3;;
60718;SDS011;46567;51.660;5.824;2023-06-14T19:32:20;3.4;;;2.0;;
60718;SDS011;46567;51.660;5.824;2023-06-14T19:37:20;2.4;;;2.0;;
60718;SDS011;46567;51.660;5.824;2023-06-14T19:42:20;3.5;;;1.8;;
60718;SDS011;46567;51.660;5.824;2023-06-14T19:47:20;5.0;;;2.2;;
60718;SDS011;46567;51.660;5.824;2023-06-14T19:52:20;5.8;;;2.1;;
60718;SDS011;46567;51.660;5.824;2023-06-14T19:57:20;4.4;;;2.3;;
60718;SDS011;46567;51.660;5.824;2023-06-14T20:02:20;3.0;;;1.8;;
60718;SDS011;46567;51.660;5.824;2023-06-14T20:07:20;2.6;;;2.0;;
60718;SDS011;46567;51.660;5.824;2023-06-14T20:12:20;3.2;;;2.3;;
60718;SDS011;46567;51.660;5.824;2023-06-14T20:17:20;3.8;;;2.7;;
60718;SDS011;46567;51.660;5.824;2023-06-14T20:22:20;4.1;;;2.5;;
60718;SDS011;46567;51.660;5.824;2023-06-14T20:27:20;5.5;;;2.8;;
60718;SDS011;46567;51.660;5.824;2023-06-14T20:32:20;4.0;;;2.6;;
60718;SDS011;46567;51.660;5.824;2023-06-14T20:37:20;4.0;;;2.9;;
60718;SDS011;46567;51.660;5.824;2023-06-14T20:42:20;6.0;;;2.8;;
60718;SDS011;46567;51.660;5.824;2023-06-14T20:47:20;7.7;;;2.8;;
60718;SDS011;46567;51.660;5.824;2023-06-14T20:52:20;3.3;;;2.3;;
60718;SDS011;46567;51.660;5.824;2023-06-14T20:57:20;4.1;;;2.5;;
60718;SDS011;46567;51.660;5.824;2023-06-14T21:02:20;4.1;;;2.4;;
60718;SDS011;46567;51.660;5.824;2023-06-14T21:07:20;4.0;;;2.5;;
60718;SDS011;46567;51.660;5.824;2023-06-14T21:12:20;2.9;;;2.2;;
60718;SDS011;46567;51.660;5.824;2023-06-14T21:17:20;4.9;;;2.6;;
60718;SDS011;46567;51.660;5.824;2023-06-14T21:22:20;4.6;;;2.6;;
60718;SDS011;46567;51.660;5.824;2023-06-14T21:27:20;3.6;;;2.4;;
60718;SDS011;46567;51.660;5.824;2023-06-14T21:32:20;2.9;;;2.5;;
60718;SDS011;46567;51.660;5.824;2023-06-14T21:37:20;3.8;;;2.5;;
60718;SDS011;46567;51.660;5.824;2023-06-14T21:42:20;3.5;;;2.4;;
60718;SDS011;46567;51.660;5.824;2023-06-14T21:47:20;3.4;;;2.3;;
60718;SDS011;46567;51.660;5.824;2023-06-14T21:52:20;2.9;;;2.4;;
60718;SDS011;46567;51.660;5.824;2023-06-14T21:57:20;3.5;;;2.3;;
60718;SDS011;46567;51.660;5.824;2023-06-14T22:02:20;5.1;;;2.7;;
60718;SDS011;46567;51.660;5.824;2023-06-14T22:07:20;3.6;;;3.2;;
60718;SDS011;46567;51.660;5.824;2023-06-14T22:12:20;6.0;;;3.2;;
60718;SDS011;46567;51.660;5.824;2023-06-14T22:17:20;5.1;;;2.8;;
60718;SDS011;46567;51.660;5.824;2023-06-14T22:22:20;3.5;;;2.5;;
60718;SDS011;46567;51.660;5.824;2023-06-14T22:27:21;6.7;;;2.9;;
60718;SDS011;46567;51.660;5.824;2023-06-14T22:32:20;3.7;;;2.8;;
60718;SDS011;46567;51.660;5.824;2023-06-14T22:37:20;2.8;;;2.6;;
60718;SDS011;46567;51.660;5.824;2023-06-14T22:42:20;3.6;;;2.7;;
60718;SDS011;46567;51.660;5.824;2023-06-14T22:47:20;3.7;;;3.1;;
60718;SDS011;46567;51.660;5.824;2023-06-14T22:52:20;6.4;;;3.0;;
60718;SDS011;46567;51.660;5.824;2023-06-14T22:57:20;4.3;;;3.3;;
60718;SDS011;46567;51.660;5.824;2023-06-14T23:02:20;5.4;;;3.3;;
60718;SDS011;46567;51.660;5.824;2023-06-14T23:07:20;4.0;;;3.6;;
60718;SDS011;46567;51.660;5.824;2023-06-14T23:12:20;5.4;;;3.5;;
60718;SDS011;46567;51.660;5.824;2023-06-14T23:17:20;4.0;;;3.6;;
60718;SDS011;46567;51.660;5.824;2023-06-14T23:22:20;5.7;;;3.3;;
60718;SDS011;46567;51.660;5.824;2023-06-14T23:27:20;4.1;;;3.2;;
60718;SDS011;46567;51.660;5.824;2023-06-14T23:32:20;4.6;;;3.6;;
60718;SDS011;46567;51.660;5.824;2023-06-14T23:37:20;3.6;;;3.2;;
60718;SDS011;46567;51.660;5.824;2023-06-14T23:42:20;4.1;;;3.4;;
60718;SDS011;46567;51.660;5.824;2023-06-14T23:47:20;4.1;;;3.7;;
60718;SDS011;46567;51.660;5.824;2023-06-14T23:52:20;5.7;;;3.6;;
60718;SDS011;46567;51.660;5.824;2023-06-14T23:57:20;4.7;;;3.8;;
